Terminal Aerodrome Forecast
Issued by NWS

Home | Current Version | Previous Version | Text Only | Print | Product List | Glossary Off
Versions: 1 2 3 4 5 6 7 8 9 10 11 12 13

000
FTUS42 KMHX 210500 RRA
TAFISO
TAF
KISO 210543Z 2106/2206 01012G19KT P6SM BKN030 OVC050
     FM211000 36009G16KT P6SM SCT030 OVC050
     FM211300 01012G18KT P6SM SCT050
     FM212000 01004KT P6SM SKC
      AMD LTD TO CLD VIS AND WIND=

USA.gov is the U.S. government's official web portal to all federal, state and local government web resources and services.